Aérodrome :
LOGIN :

S'inscrire | Disclaimer

   EN    FR    IT 

 










Légende :    VFR   VFR Marginal   IFR   IFR Intensif   IFR Très Intensif
Visi : 
Plafond : 
>= 8 km
>= 3000ft
5 à 8 km
1000 à 3000 ft
1500m à 5 km
500 à 1000 ft
800 à 1500m
200 à 500 ft
< 800m
< 200 ft
Symboles :   Orages  Brouillard  Fortes neiges  Fortes précipitations  Vent > 20 kt
SIGMETs :   Divers  Orages  Givrage  Turbulence  Onde Orograph.  Cendres Volcan.







- Altitude de l'aérodrome : 336 ft
- Code IATA : GCI
- Voir les cartes d'approche


EGJB - Guernsey

DERNIER METAR :
  • 221750Z 28014KT 9999 BKN025 10/06 Q1021

METARs EXPIRÉS :
  • 221720Z 28014KT 9999 FEW012 BKN025 10/06 Q1020
  • 221650Z 29012KT 9999 FEW012 BKN027 10/06 Q1020
  • 221620Z 29013KT 9999 FEW011 SCT030 10/07 Q1020
  • 221550Z 28014KT 9999 FEW011 SCT034 10/08 Q1019
  • 221520Z 28013KT 9999 FEW011 10/08 Q1019

TAF TAF EGJB
Valide du 22 à 18h jusqu'au 23 à 03h UTC


221655Z 2218/2303 28014KT 9999 FEW010 SCT025
BECMG 2222/2301 20014KT
TEMPO 2301/2303 8000 RA BKN018
ATIS : +44 1481 238 957
Pas de NOTAMs connus pour ce terrain.



MET'MAP, la Météo Aéronautique d'un coup d'oeil ! - Copyright ORBIFLY Décembre 2007 - Disclaimer

ORBIFLY MET'MAP TEAM :

Programmation & Développement : Alexandra Zaïnal
Conception & Développement : Baudouin d'Aumeries
Co-Programmation & Développement : Marc-Olivier Méhu
Soutien technique & logistique : Manuel Goepfert

Contact : metmap@orbifly.com




SOURCES & CREDITS :

   NOAA